sensor_id;sensor_type;location;lat;lon;timestamp;pressure;altitude;pressure_sealevel;temperature;humidity
15477;BME280;7840;42.702;23.296;2023-08-24T00:01:15;95166.63;;;22.90;100.00
15477;BME280;7840;42.702;23.296;2023-08-24T00:03:44;95164.91;;;22.68;100.00
15477;BME280;7840;42.702;23.296;2023-08-24T00:06:12;95166.50;;;22.86;100.00
15477;BME280;7840;42.702;23.296;2023-08-24T00:08:39;95176.47;;;22.95;100.00
15477;BME280;7840;42.702;23.296;2023-08-24T00:11:07;95170.91;;;22.82;100.00
15477;BME280;7840;42.702;23.296;2023-08-24T00:13:35;95167.72;;;22.98;100.00
15477;BME280;7840;42.702;23.296;2023-08-24T00:16:04;95161.81;;;23.13;100.00
15477;BME280;7840;42.702;23.296;2023-08-24T00:18:31;95159.41;;;23.20;100.00
15477;BME280;7840;42.702;23.296;2023-08-24T00:20:59;95158.56;;;23.19;100.00
15477;BME280;7840;42.702;23.296;2023-08-24T00:23:28;95156.97;;;23.27;100.00
15477;BME280;7840;42.702;23.296;2023-08-24T00:25:56;95164.59;;;23.34;100.00
15477;BME280;7840;42.702;23.296;2023-08-24T00:28:23;95160.59;;;23.31;100.00
15477;BME280;7840;42.702;23.296;2023-08-24T00:30:51;95163.75;;;22.95;100.00
15477;BME280;7840;42.702;23.296;2023-08-24T00:33:20;95154.75;;;22.65;100.00
15477;BME280;7840;42.702;23.296;2023-08-24T00:35:47;95167.25;;;22.78;100.00
15477;BME280;7840;42.702;23.296;2023-08-24T00:38:15;95164.56;;;22.96;100.00
15477;BME280;7840;42.702;23.296;2023-08-24T00:40:42;95170.00;;;22.61;100.00
15477;BME280;7840;42.702;23.296;2023-08-24T00:43:10;95171.31;;;22.37;100.00
15477;BME280;7840;42.702;23.296;2023-08-24T00:45:38;95162.56;;;22.41;100.00
15477;BME280;7840;42.702;23.296;2023-08-24T00:48:06;95164.75;;;22.64;100.00
15477;BME280;7840;42.702;23.296;2023-08-24T00:50:36;95161.38;;;22.76;100.00
15477;BME280;7840;42.702;23.296;2023-08-24T00:53:03;95165.88;;;22.72;100.00
15477;BME280;7840;42.702;23.296;2023-08-24T00:55:31;95163.19;;;22.46;100.00
15477;BME280;7840;42.702;23.296;2023-08-24T00:57:59;95165.56;;;22.48;100.00
15477;BME280;7840;42.702;23.296;2023-08-24T01:00:27;95171.75;;;22.48;100.00
15477;BME280;7840;42.702;23.296;2023-08-24T01:02:54;95163.81;;;22.43;100.00
15477;BME280;7840;42.702;23.296;2023-08-24T01:05:22;95177.00;;;22.27;100.00
15477;BME280;7840;42.702;23.296;2023-08-24T01:07:51;95172.69;;;22.00;100.00
15477;BME280;7840;42.702;23.296;2023-08-24T01:10:18;95171.91;;;22.00;100.00
15477;BME280;7840;42.702;23.296;2023-08-24T01:12:58;95159.06;;;22.23;100.00
15477;BME280;7840;42.702;23.296;2023-08-24T01:15:35;95154.16;;;22.33;100.00
15477;BME280;7840;42.702;23.296;2023-08-24T01:18:06;95150.66;;;22.33;100.00
15477;BME280;7840;42.702;23.296;2023-08-24T01:20:36;95151.28;;;22.30;100.00
15477;BME280;7840;42.702;23.296;2023-08-24T01:23:14;95157.50;;;22.13;100.00
15477;BME280;7840;42.702;23.296;2023-08-24T01:25:48;95155.22;;;21.72;100.00
15477;BME280;7840;42.702;23.296;2023-08-24T01:28:20;95162.97;;;21.73;100.00
15477;BME280;7840;42.702;23.296;2023-08-24T01:30:48;95157.63;;;21.91;100.00
15477;BME280;7840;42.702;23.296;2023-08-24T01:33:15;95161.28;;;22.03;100.00
15477;BME280;7840;42.702;23.296;2023-08-24T01:35:43;95164.63;;;22.09;100.00
15477;BME280;7840;42.702;23.296;2023-08-24T01:38:10;95162.41;;;22.20;100.00
15477;BME280;7840;42.702;23.296;2023-08-24T01:40:48;95161.78;;;22.31;100.00
15477;BME280;7840;42.702;23.296;2023-08-24T01:43:23;95169.66;;;21.84;100.00
15477;BME280;7840;42.702;23.296;2023-08-24T01:45:52;95175.66;;;21.64;100.00
15477;BME280;7840;42.702;23.296;2023-08-24T01:48:21;95168.69;;;21.80;100.00
15477;BME280;7840;42.702;23.296;2023-08-24T01:50:50;95172.03;;;21.95;100.00
15477;BME280;7840;42.702;23.296;2023-08-24T01:53:18;95171.56;;;21.93;100.00
15477;BME280;7840;42.702;23.296;2023-08-24T01:55:45;95179.72;;;21.53;100.00
15477;BME280;7840;42.702;23.296;2023-08-24T01:58:13;95174.97;;;21.50;100.00
15477;BME280;7840;42.702;23.296;2023-08-24T02:00:42;95177.09;;;21.79;100.00
15477;BME280;7840;42.702;23.296;2023-08-24T02:03:09;95174.13;;;21.98;100.00
15477;BME280;7840;42.702;23.296;2023-08-24T02:05:37;95175.84;;;22.02;100.00
15477;BME280;7840;42.702;23.296;2023-08-24T02:08:05;95175.41;;;22.09;100.00
15477;BME280;7840;42.702;23.296;2023-08-24T02:10:32;95175.13;;;22.10;100.00
15477;BME280;7840;42.702;23.296;2023-08-24T02:13:00;95172.97;;;21.81;100.00
15477;BME280;7840;42.702;23.296;2023-08-24T02:15:27;95181.50;;;21.57;100.00
15477;BME280;7840;42.702;23.296;2023-08-24T02:17:56;95168.94;;;21.53;100.00
15477;BME280;7840;42.702;23.296;2023-08-24T02:20:24;95179.59;;;21.49;100.00
15477;BME280;7840;42.702;23.296;2023-08-24T02:22:51;95182.41;;;21.44;100.00
15477;BME280;7840;42.702;23.296;2023-08-24T02:25:19;95176.75;;;21.23;100.00
15477;BME280;7840;42.702;23.296;2023-08-24T02:27:46;95180.56;;;21.22;100.00
15477;BME280;7840;42.702;23.296;2023-08-24T02:30:17;95176.84;;;21.41;100.00
15477;BME280;7840;42.702;23.296;2023-08-24T02:32:44;95171.19;;;21.51;100.00
15477;BME280;7840;42.702;23.296;2023-08-24T02:35:13;95174.53;;;21.56;100.00
15477;BME280;7840;42.702;23.296;2023-08-24T02:37:41;95167.09;;;21.62;100.00
15477;BME280;7840;42.702;23.296;2023-08-24T02:40:09;95167.25;;;21.66;100.00
15477;BME280;7840;42.702;23.296;2023-08-24T02:42:36;95154.22;;;21.59;100.00
15477;BME280;7840;42.702;23.296;2023-08-24T02:45:04;95160.09;;;21.61;100.00
15477;BME280;7840;42.702;23.296;2023-08-24T02:47:32;95158.69;;;21.55;100.00
15477;BME280;7840;42.702;23.296;2023-08-24T02:50:00;95152.50;;;21.63;100.00
15477;BME280;7840;42.702;23.296;2023-08-24T02:52:28;95155.34;;;21.58;100.00
15477;BME280;7840;42.702;23.296;2023-08-24T02:54:56;95168.31;;;21.47;100.00
15477;BME280;7840;42.702;23.296;2023-08-24T02:57:23;95162.88;;;21.39;100.00
15477;BME280;7840;42.702;23.296;2023-08-24T02:59:51;95169.84;;;21.00;100.00
15477;BME280;7840;42.702;23.296;2023-08-24T03:02:18;95176.91;;;20.87;100.00
15477;BME280;7840;42.702;23.296;2023-08-24T03:04:46;95171.97;;;20.81;100.00
15477;BME280;7840;42.702;23.296;2023-08-24T03:07:13;95172.69;;;20.95;100.00
15477;BME280;7840;42.702;23.296;2023-08-24T03:09:42;95175.38;;;20.95;100.00
15477;BME280;7840;42.702;23.296;2023-08-24T03:12:10;95177.94;;;21.00;100.00
15477;BME280;7840;42.702;23.296;2023-08-24T03:14:38;95173.78;;;20.94;100.00
15477;BME280;7840;42.702;23.296;2023-08-24T03:17:06;95184.13;;;21.00;100.00
15477;BME280;7840;42.702;23.296;2023-08-24T03:19:33;95184.69;;;20.89;100.00
15477;BME280;7840;42.702;23.296;2023-08-24T03:22:01;95188.38;;;20.70;100.00
15477;BME280;7840;42.702;23.296;2023-08-24T03:24:28;95190.09;;;20.66;100.00
15477;BME280;7840;42.702;23.296;2023-08-24T03:26:57;95179.19;;;20.27;100.00
15477;BME280;7840;42.702;23.296;2023-08-24T03:29:25;95193.28;;;20.46;100.00
15477;BME280;7840;42.702;23.296;2023-08-24T03:31:52;95194.75;;;20.52;100.00
15477;BME280;7840;42.702;23.296;2023-08-24T03:34:22;95185.06;;;20.51;100.00
15477;BME280;7840;42.702;23.296;2023-08-24T03:36:50;95185.31;;;20.63;100.00
15477;BME280;7840;42.702;23.296;2023-08-24T03:39:17;95197.44;;;20.74;100.00
15477;BME280;7840;42.702;23.296;2023-08-24T03:41:45;95205.56;;;20.83;100.00
15477;BME280;7840;42.702;23.296;2023-08-24T03:44:14;95214.09;;;20.85;100.00
15477;BME280;7840;42.702;23.296;2023-08-24T03:46:41;95224.72;;;20.82;100.00
15477;BME280;7840;42.702;23.296;2023-08-24T03:49:11;95221.41;;;20.85;100.00
15477;BME280;7840;42.702;23.296;2023-08-24T03:51:38;95217.13;;;20.84;100.00
15477;BME280;7840;42.702;23.296;2023-08-24T03:54:06;95217.53;;;20.77;100.00
15477;BME280;7840;42.702;23.296;2023-08-24T03:56:33;95218.69;;;20.85;100.00
15477;BME280;7840;42.702;23.296;2023-08-24T03:59:01;95219.44;;;20.76;100.00
15477;BME280;7840;42.702;23.296;2023-08-24T04:01:30;95212.34;;;20.81;100.00
15477;BME280;7840;42.702;23.296;2023-08-24T04:03:57;95216.19;;;20.88;100.00
15477;BME280;7840;42.702;23.296;2023-08-24T04:06:25;95217.03;;;20.66;100.00
15477;BME280;7840;42.702;23.296;2023-08-24T04:08:52;95215.91;;;20.67;100.00
15477;BME280;7840;42.702;23.296;2023-08-24T04:11:20;95218.72;;;20.62;100.00
15477;BME280;7840;42.702;23.296;2023-08-24T04:13:47;95215.75;;;20.72;100.00
15477;BME280;7840;42.702;23.296;2023-08-24T04:16:15;95216.31;;;20.83;100.00
15477;BME280;7840;42.702;23.296;2023-08-24T04:18:44;95209.88;;;20.93;100.00
15477;BME280;7840;42.702;23.296;2023-08-24T04:21:11;95211.34;;;20.99;100.00
15477;BME280;7840;42.702;23.296;2023-08-24T04:23:39;95213.00;;;21.09;100.00
15477;BME280;7840;42.702;23.296;2023-08-24T04:26:11;95214.41;;;20.84;100.00
15477;BME280;7840;42.702;23.296;2023-08-24T04:28:38;95219.75;;;20.75;100.00
15477;BME280;7840;42.702;23.296;2023-08-24T04:31:06;95220.06;;;20.73;100.00
15477;BME280;7840;42.702;23.296;2023-08-24T04:33:33;95221.78;;;20.69;100.00
15477;BME280;7840;42.702;23.296;2023-08-24T04:36:02;95220.78;;;20.88;100.00
15477;BME280;7840;42.702;23.296;2023-08-24T04:38:30;95221.63;;;20.97;100.00
15477;BME280;7840;42.702;23.296;2023-08-24T04:40:57;95227.00;;;20.97;100.00
15477;BME280;7840;42.702;23.296;2023-08-24T04:43:25;95229.09;;;21.00;100.00
15477;BME280;7840;42.702;23.296;2023-08-24T04:45:53;95219.16;;;21.09;100.00
15477;BME280;7840;42.702;23.296;2023-08-24T04:48:22;95206.19;;;21.11;100.00
15477;BME280;7840;42.702;23.296;2023-08-24T04:50:50;95208.38;;;21.09;100.00
15477;BME280;7840;42.702;23.296;2023-08-24T04:53:20;95207.25;;;21.01;100.00
15477;BME280;7840;42.702;23.296;2023-08-24T04:55:48;95212.91;;;21.22;100.00
15477;BME280;7840;42.702;23.296;2023-08-24T04:58:16;95218.53;;;21.35;100.00
15477;BME280;7840;42.702;23.296;2023-08-24T05:00:43;95217.31;;;21.49;100.00
15477;BME280;7840;42.702;23.296;2023-08-24T05:03:11;95217.50;;;21.62;100.00
15477;BME280;7840;42.702;23.296;2023-08-24T05:05:39;95223.97;;;21.52;100.00
15477;BME280;7840;42.702;23.296;2023-08-24T05:08:07;95234.72;;;21.43;100.00
15477;BME280;7840;42.702;23.296;2023-08-24T05:10:37;95233.00;;;21.16;100.00
15477;BME280;7840;42.702;23.296;2023-08-24T05:13:05;95236.16;;;21.18;100.00
15477;BME280;7840;42.702;23.296;2023-08-24T05:15:32;95237.88;;;21.37;100.00
15477;BME280;7840;42.702;23.296;2023-08-24T05:18:00;95238.34;;;21.39;100.00
15477;BME280;7840;42.702;23.296;2023-08-24T05:20:28;95231.44;;;21.55;100.00
15477;BME280;7840;42.702;23.296;2023-08-24T05:22:56;95239.59;;;21.72;100.00
15477;BME280;7840;42.702;23.296;2023-08-24T05:25:24;95245.22;;;21.53;100.00
15477;BME280;7840;42.702;23.296;2023-08-24T05:27:53;95239.31;;;21.43;100.00
15477;BME280;7840;42.702;23.296;2023-08-24T05:30:20;95241.50;;;21.41;100.00
15477;BME280;7840;42.702;23.296;2023-08-24T05:32:48;95246.31;;;21.52;100.00
15477;BME280;7840;42.702;23.296;2023-08-24T05:35:15;95244.78;;;21.60;100.00
15477;BME280;7840;42.702;23.296;2023-08-24T05:37:43;95259.94;;;21.87;100.00
15477;BME280;7840;42.702;23.296;2023-08-24T05:40:11;95257.56;;;21.94;100.00
15477;BME280;7840;42.702;23.296;2023-08-24T05:42:38;95252.09;;;22.17;100.00
15477;BME280;7840;42.702;23.296;2023-08-24T05:45:08;95247.81;;;22.42;100.00
15477;BME280;7840;42.702;23.296;2023-08-24T05:47:36;95243.56;;;22.58;100.00
15477;BME280;7840;42.702;23.296;2023-08-24T05:50:03;95253.22;;;22.76;100.00
15477;BME280;7840;42.702;23.296;2023-08-24T05:52:31;95263.38;;;22.62;100.00
15477;BME280;7840;42.702;23.296;2023-08-24T05:54:58;95263.38;;;22.62;100.00
15477;BME280;7840;42.702;23.296;2023-08-24T05:57:26;95262.91;;;22.77;100.00
15477;BME280;7840;42.702;23.296;2023-08-24T05:59:54;95260.50;;;22.84;100.00
15477;BME280;7840;42.702;23.296;2023-08-24T06:02:23;95261.16;;;22.64;100.00
15477;BME280;7840;42.702;23.296;2023-08-24T06:04:50;95265.94;;;22.67;100.00
15477;BME280;7840;42.702;23.296;2023-08-24T06:07:18;95261.16;;;22.81;100.00
15477;BME280;7840;42.702;23.296;2023-08-24T06:09:45;95252.06;;;23.20;100.00
15477;BME280;7840;42.702;23.296;2023-08-24T06:12:13;95269.97;;;23.42;100.00
15477;BME280;7840;42.702;23.296;2023-08-24T06:14:40;95262.00;;;23.55;100.00
15477;BME280;7840;42.702;23.296;2023-08-24T06:17:07;95267.00;;;23.82;100.00
15477;BME280;7840;42.702;23.296;2023-08-24T06:19:36;95260.06;;;24.02;100.00
15477;BME280;7840;42.702;23.296;2023-08-24T06:22:04;95259.75;;;24.24;100.00
15477;BME280;7840;42.702;23.296;2023-08-24T06:24:31;95269.16;;;24.18;100.00
15477;BME280;7840;42.702;23.296;2023-08-24T06:26:59;95262.22;;;24.09;100.00
15477;BME280;7840;42.702;23.296;2023-08-24T06:29:28;95259.63;;;23.91;100.00
15477;BME280;7840;42.702;23.296;2023-08-24T06:31:56;95263.56;;;24.23;100.00
15477;BME280;7840;42.702;23.296;2023-08-24T06:34:23;95264.50;;;24.27;100.00
15477;BME280;7840;42.702;23.296;2023-08-24T06:36:53;95261.72;;;24.45;100.00
15477;BME280;7840;42.702;23.296;2023-08-24T06:39:22;95266.59;;;24.51;100.00
15477;BME280;7840;42.702;23.296;2023-08-24T06:41:51;95264.06;;;24.46;100.00
15477;BME280;7840;42.702;23.296;2023-08-24T06:44:18;95271.53;;;24.49;100.00
15477;BME280;7840;42.702;23.296;2023-08-24T06:46:46;95272.13;;;24.76;100.00
15477;BME280;7840;42.702;23.296;2023-08-24T06:49:13;95273.91;;;24.21;100.00
15477;BME280;7840;42.702;23.296;2023-08-24T06:51:41;95266.81;;;24.17;100.00
15477;BME280;7840;42.702;23.296;2023-08-24T06:54:09;95263.94;;;24.43;100.00
15477;BME280;7840;42.702;23.296;2023-08-24T06:56:37;95263.81;;;24.81;100.00
15477;BME280;7840;42.702;23.296;2023-08-24T06:59:04;95263.41;;;24.91;100.00
15477;BME280;7840;42.702;23.296;2023-08-24T07:01:32;95259.66;;;25.17;100.00
15477;BME280;7840;42.702;23.296;2023-08-24T07:04:00;95246.75;;;25.59;100.00
15477;BME280;7840;42.702;23.296;2023-08-24T07:06:27;95252.50;;;25.57;100.00
15477;BME280;7840;42.702;23.296;2023-08-24T07:08:57;95255.00;;;25.62;100.00
15477;BME280;7840;42.702;23.296;2023-08-24T07:11:26;95246.13;;;25.99;100.00
15477;BME280;7840;42.702;23.296;2023-08-24T07:13:54;95248.47;;;26.25;100.00
15477;BME280;7840;42.702;23.296;2023-08-24T07:16:21;95242.03;;;26.69;100.00
15477;BME280;7840;42.702;23.296;2023-08-24T07:18:49;95239.84;;;27.03;100.00
15477;BME280;7840;42.702;23.296;2023-08-24T07:21:16;95245.47;;;27.22;93.26
15477;BME280;7840;42.702;23.296;2023-08-24T07:23:44;95240.75;;;27.51;95.97
15477;BME280;7840;42.702;23.296;2023-08-24T07:26:12;95238.06;;;27.67;88.03
15477;BME280;7840;42.702;23.296;2023-08-24T07:28:41;95237.69;;;28.00;89.21
15477;BME280;7840;42.702;23.296;2023-08-24T07:31:09;95241.53;;;28.30;85.42
15477;BME280;7840;42.702;23.296;2023-08-24T07:33:37;95228.31;;;28.48;80.07
15477;BME280;7840;42.702;23.296;2023-08-24T07:36:06;95235.13;;;28.58;78.12
15477;BME280;7840;42.702;23.296;2023-08-24T07:38:34;95237.22;;;28.84;75.78
15477;BME280;7840;42.702;23.296;2023-08-24T07:41:01;95238.88;;;29.08;74.65
15477;BME280;7840;42.702;23.296;2023-08-24T07:43:29;95237.84;;;28.58;76.41
15477;BME280;7840;42.702;23.296;2023-08-24T07:45:58;95233.97;;;28.78;76.22
15477;BME280;7840;42.702;23.296;2023-08-24T07:48:26;95227.94;;;28.88;74.62
15477;BME280;7840;42.702;23.296;2023-08-24T07:50:54;95234.69;;;29.14;71.85
15477;BME280;7840;42.702;23.296;2023-08-24T07:53:21;95228.97;;;29.42;72.37
15477;BME280;7840;42.702;23.296;2023-08-24T07:55:48;95233.00;;;29.71;70.67
15477;BME280;7840;42.702;23.296;2023-08-24T07:58:16;95229.69;;;30.08;67.38
15477;BME280;7840;42.702;23.296;2023-08-24T08:00:44;95220.03;;;30.40;65.43
15477;BME280;7840;42.702;23.296;2023-08-24T08:03:13;95226.91;;;30.61;65.10
15477;BME280;7840;42.702;23.296;2023-08-24T08:05:41;95223.59;;;30.74;63.16
15477;BME280;7840;42.702;23.296;2023-08-24T08:08:08;95220.00;;;31.00;62.40
15477;BME280;7840;42.702;23.296;2023-08-24T08:10:36;95222.06;;;31.11;60.00
15477;BME280;7840;42.702;23.296;2023-08-24T08:13:03;95224.50;;;31.19;59.74
15477;BME280;7840;42.702;23.296;2023-08-24T08:15:31;95212.78;;;31.19;59.29
15477;BME280;7840;42.702;23.296;2023-08-24T08:17:58;95214.63;;;31.45;59.11
15477;BME280;7840;42.702;23.296;2023-08-24T08:20:27;95212.53;;;31.72;57.99
15477;BME280;7840;42.702;23.296;2023-08-24T08:22:55;95211.28;;;31.66;57.71
15477;BME280;7840;42.702;23.296;2023-08-24T08:25:22;95215.06;;;31.95;56.00
15477;BME280;7840;42.702;23.296;2023-08-24T08:27:50;95216.81;;;32.24;55.05
15477;BME280;7840;42.702;23.296;2023-08-24T08:30:18;95220.13;;;32.44;54.78
15477;BME280;7840;42.702;23.296;2023-08-24T08:32:46;95213.13;;;32.57;54.98
15477;BME280;7840;42.702;23.296;2023-08-24T08:35:14;95203.03;;;32.76;54.42
15477;BME280;7840;42.702;23.296;2023-08-24T08:37:43;95203.16;;;33.04;52.07
15477;BME280;7840;42.702;23.296;2023-08-24T08:40:11;95202.31;;;32.93;50.81
15477;BME280;7840;42.702;23.296;2023-08-24T08:42:39;95201.59;;;33.14;52.26
15477;BME280;7840;42.702;23.296;2023-08-24T08:45:09;95207.84;;;33.00;51.97
15477;BME280;7840;42.702;23.296;2023-08-24T08:47:37;95200.09;;;33.38;51.40
15477;BME280;7840;42.702;23.296;2023-08-24T08:50:07;95193.06;;;33.55;49.70
15477;BME280;7840;42.702;23.296;2023-08-24T08:52:35;95193.44;;;33.89;48.15
15477;BME280;7840;42.702;23.296;2023-08-24T08:55:05;95192.28;;;33.58;48.10
15477;BME280;7840;42.702;23.296;2023-08-24T08:57:35;95192.28;;;33.90;48.51
15477;BME280;7840;42.702;23.296;2023-08-24T09:00:04;95178.91;;;34.20;46.13
15477;BME280;7840;42.702;23.296;2023-08-24T09:02:33;95178.47;;;34.40;45.66
15477;BME280;7840;42.702;23.296;2023-08-24T09:05:02;95177.69;;;34.50;46.79
15477;BME280;7840;42.702;23.296;2023-08-24T09:07:30;95163.13;;;34.57;46.33
15477;BME280;7840;42.702;23.296;2023-08-24T09:09:59;95163.88;;;34.64;46.18
15477;BME280;7840;42.702;23.296;2023-08-24T09:12:31;95165.34;;;34.79;45.63
15477;BME280;7840;42.702;23.296;2023-08-24T09:14:59;95153.28;;;34.59;45.73
15477;BME280;7840;42.702;23.296;2023-08-24T09:17:27;95150.75;;;35.00;44.79
15477;BME280;7840;42.702;23.296;2023-08-24T09:19:59;95148.69;;;35.15;44.86
15477;BME280;7840;42.702;23.296;2023-08-24T09:22:27;95156.38;;;35.49;43.83
15477;BME280;7840;42.702;23.296;2023-08-24T09:24:54;95146.97;;;35.91;43.13
15477;BME280;7840;42.702;23.296;2023-08-24T09:27:22;95144.81;;;35.65;43.82
15477;BME280;7840;42.702;23.296;2023-08-24T09:29:52;95132.56;;;35.69;42.42
15477;BME280;7840;42.702;23.296;2023-08-24T09:32:23;95136.34;;;35.86;41.50
15477;BME280;7840;42.702;23.296;2023-08-24T09:34:51;95131.06;;;36.06;40.87
15477;BME280;7840;42.702;23.296;2023-08-24T09:37:18;95130.69;;;36.41;40.38
15477;BME280;7840;42.702;23.296;2023-08-24T09:39:46;95129.22;;;36.64;39.46
15477;BME280;7840;42.702;23.296;2023-08-24T09:42:14;95127.38;;;36.88;38.98
15477;BME280;7840;42.702;23.296;2023-08-24T09:44:44;95114.09;;;36.76;39.48
15477;BME280;7840;42.702;23.296;2023-08-24T09:47:13;95113.41;;;36.68;39.36
15477;BME280;7840;42.702;23.296;2023-08-24T09:49:41;95108.84;;;36.54;39.43
15477;BME280;7840;42.702;23.296;2023-08-24T09:52:09;95107.25;;;36.57;38.09
15477;BME280;7840;42.702;23.296;2023-08-24T09:54:38;95104.72;;;36.69;38.24
15477;BME280;7840;42.702;23.296;2023-08-24T09:57:08;95108.69;;;36.68;37.57
15477;BME280;7840;42.702;23.296;2023-08-24T09:59:40;95104.53;;;36.19;39.22
15477;BME280;7840;42.702;23.296;2023-08-24T10:02:23;95097.38;;;36.25;39.13
15477;BME280;7840;42.702;23.296;2023-08-24T10:04:52;95095.19;;;36.43;38.63
15477;BME280;7840;42.702;23.296;2023-08-24T10:07:23;95099.00;;;36.19;38.27
15477;BME280;7840;42.702;23.296;2023-08-24T10:09:56;95090.88;;;36.42;37.93
15477;BME280;7840;42.702;23.296;2023-08-24T10:12:26;95094.25;;;36.84;36.85
15477;BME280;7840;42.702;23.296;2023-08-24T10:15:00;95089.69;;;36.74;36.62
15477;BME280;7840;42.702;23.296;2023-08-24T10:17:34;95081.88;;;37.23;36.25
15477;BME280;7840;42.702;23.296;2023-08-24T10:20:04;95085.88;;;37.45;36.34
15477;BME280;7840;42.702;23.296;2023-08-24T10:22:35;95087.69;;;38.02;34.60
15477;BME280;7840;42.702;23.296;2023-08-24T10:25:07;95085.16;;;38.51;34.37
15477;BME280;7840;42.702;23.296;2023-08-24T10:27:35;95090.75;;;37.61;34.20
15477;BME280;7840;42.702;23.296;2023-08-24T10:30:03;95075.44;;;37.80;34.31
15477;BME280;7840;42.702;23.296;2023-08-24T10:32:33;95081.22;;;37.89;33.74
15477;BME280;7840;42.702;23.296;2023-08-24T10:35:01;95075.13;;;36.70;35.36
15477;BME280;7840;42.702;23.296;2023-08-24T10:37:29;95075.28;;;36.25;35.17
15477;BME280;7840;42.702;23.296;2023-08-24T10:39:57;95082.44;;;35.36;37.66
15477;BME280;7840;42.702;23.296;2023-08-24T10:42:24;95086.09;;;35.71;37.01
15477;BME280;7840;42.702;23.296;2023-08-24T10:44:53;95082.50;;;34.63;39.11
15477;BME280;7840;42.702;23.296;2023-08-24T10:47:21;95080.78;;;33.96;41.65
15477;BME280;7840;42.702;23.296;2023-08-24T10:50:00;95080.34;;;34.08;41.88
15477;BME280;7840;42.702;23.296;2023-08-24T10:52:31;95088.25;;;33.20;44.41
15477;BME280;7840;42.702;23.296;2023-08-24T10:57:37;95105.97;;;32.15;53.87
15477;BME280;7840;42.702;23.296;2023-08-24T11:00:06;95093.09;;;32.26;54.08
15477;BME280;7840;42.702;23.296;2023-08-24T11:02:42;95093.84;;;32.23;55.30
15477;BME280;7840;42.702;23.296;2023-08-24T11:05:22;95089.88;;;32.06;51.64
15477;BME280;7840;42.702;23.296;2023-08-24T11:07:53;95074.13;;;31.85;49.12
15477;BME280;7840;42.702;23.296;2023-08-24T11:10:21;95080.72;;;31.84;47.60
15477;BME280;7840;42.702;23.296;2023-08-24T11:13:05;95074.69;;;31.61;48.77
15477;BME280;7840;42.702;23.296;2023-08-24T11:15:36;95077.84;;;31.63;49.43
15477;BME280;7840;42.702;23.296;2023-08-24T11:18:28;95073.00;;;31.38;49.68
15477;BME280;7840;42.702;23.296;2023-08-24T11:21:01;95072.81;;;31.20;52.17
15477;BME280;7840;42.702;23.296;2023-08-24T11:23:29;95076.03;;;31.26;51.35
15477;BME280;7840;42.702;23.296;2023-08-24T11:25:59;95075.31;;;31.36;51.33
15477;BME280;7840;42.702;23.296;2023-08-24T11:28:28;95082.22;;;30.78;52.00
15477;BME280;7840;42.702;23.296;2023-08-24T11:30:57;95083.69;;;30.35;53.40
15477;BME280;7840;42.702;23.296;2023-08-24T11:33:28;95086.25;;;29.94;54.39
15477;BME280;7840;42.702;23.296;2023-08-24T11:35:58;95091.13;;;29.52;56.07
15477;BME280;7840;42.702;23.296;2023-08-24T11:38:34;95096.72;;;29.13;57.81
15477;BME280;7840;42.702;23.296;2023-08-24T11:41:11;95089.06;;;29.45;58.63
15477;BME280;7840;42.702;23.296;2023-08-24T11:43:39;95090.25;;;30.01;57.27
15477;BME280;7840;42.702;23.296;2023-08-24T11:46:07;95084.41;;;30.32;56.45
15477;BME280;7840;42.702;23.296;2023-08-24T11:48:35;95084.72;;;30.61;56.77
15477;BME280;7840;42.702;23.296;2023-08-24T11:51:08;95085.66;;;30.38;55.98
15477;BME280;7840;42.702;23.296;2023-08-24T11:53:38;95092.22;;;29.74;58.69
15477;BME280;7840;42.702;23.296;2023-08-24T11:56:07;95082.28;;;29.88;58.89
15477;BME280;7840;42.702;23.296;2023-08-24T11:58:38;95083.22;;;29.47;61.13
15477;BME280;7840;42.702;23.296;2023-08-24T12:01:06;95082.03;;;29.21;64.26
15477;BME280;7840;42.702;23.296;2023-08-24T12:03:34;95077.66;;;29.39;68.71
15477;BME280;7840;42.702;23.296;2023-08-24T12:06:08;95072.81;;;29.29;70.77
15477;BME280;7840;42.702;23.296;2023-08-24T12:08:39;95064.69;;;28.64;76.58
15477;BME280;7840;42.702;23.296;2023-08-24T12:11:11;95057.28;;;28.87;75.71
15477;BME280;7840;42.702;23.296;2023-08-24T12:13:43;95049.94;;;29.11;75.45
15477;BME280;7840;42.702;23.296;2023-08-24T12:16:13;95042.03;;;29.06;75.82
15477;BME280;7840;42.702;23.296;2023-08-24T12:18:49;95039.72;;;29.08;73.51
15477;BME280;7840;42.702;23.296;2023-08-24T12:21:19;95048.22;;;29.03;71.58
15477;BME280;7840;42.702;23.296;2023-08-24T12:23:56;95043.06;;;29.21;70.53
15477;BME280;7840;42.702;23.296;2023-08-24T12:26:25;95039.44;;;29.39;69.81
15477;BME280;7840;42.702;23.296;2023-08-24T12:28:55;95047.66;;;29.66;67.13
15477;BME280;7840;42.702;23.296;2023-08-24T12:31:27;95046.53;;;30.01;63.44
15477;BME280;7840;42.702;23.296;2023-08-24T12:34:00;95045.78;;;30.04;61.69
15477;BME280;7840;42.702;23.296;2023-08-24T12:36:31;95048.31;;;30.16;62.65
15477;BME280;7840;42.702;23.296;2023-08-24T12:38:59;95050.88;;;30.35;62.16
15477;BME280;7840;42.702;23.296;2023-08-24T12:41:26;95047.78;;;30.74;62.17
15477;BME280;7840;42.702;23.296;2023-08-24T12:43:54;95040.66;;;31.07;58.81
15477;BME280;7840;42.702;23.296;2023-08-24T12:46:21;95057.31;;;31.35;58.07
15477;BME280;7840;42.702;23.296;2023-08-24T12:48:50;95052.69;;;30.98;58.41
15477;BME280;7840;42.702;23.296;2023-08-24T12:51:17;95054.19;;;30.18;66.48
15477;BME280;7840;42.702;23.296;2023-08-24T12:53:46;95064.03;;;29.66;70.99
15477;BME280;7840;42.702;23.296;2023-08-24T12:56:14;95071.44;;;29.65;75.45
15477;BME280;7840;42.702;23.296;2023-08-24T12:58:41;95073.38;;;28.93;83.10
15477;BME280;7840;42.702;23.296;2023-08-24T13:01:10;95078.38;;;29.36;80.37
15477;BME280;7840;42.702;23.296;2023-08-24T13:03:38;95065.69;;;29.48;77.36
15477;BME280;7840;42.702;23.296;2023-08-24T13:06:06;95079.16;;;29.86;74.50